Time;durP1;ratioP1;P1;durP2;ratioP2;P2;SDS_P1;SDS_P2;PMS_P1;PMS_P2;Temp;Humidity;BMP_temperature;BMP_pressure;BME280_temperature;BME280_humidity;BME280_pressure;Samples;Min_cycle;Max_cycle;Signal;HPM_P1;HPM_P2
2024/01/28 00:00:18;;;;;;;4.85;4.15;;;;;;;3.63;65.27;100497.44;5092332;28;20016;-73
2024/01/28 00:02:43;;;;;;;5.57;3.45;;;;;;;3.52;65.88;100496.47;5092220;28;20036;-72
2024/01/28 00:05:13;;;;;;;6.97;3.00;;;;;;;3.47;65.67;100505.56;5108024;28;20412;-73
2024/01/28 00:07:38;;;;;;;7.15;3.90;;;;;;;3.34;66.47;100514.28;5090819;28;20106;-73
2024/01/28 00:10:04;;;;;;;7.25;4.30;;;;;;;3.50;66.27;100516.13;5092103;28;20150;-73
2024/01/28 00:12:30;;;;;;;8.75;3.67;;;;;;;3.76;65.42;100521.91;5091334;28;20023;-73
2024/01/28 00:14:57;;;;;;;60.70;37.00;;;;;;;3.87;65.21;100535.81;5107519;28;20047;-73
2024/01/28 00:17:22;;;;;;;62.58;42.88;;;;;;;3.90;65.95;100522.25;5091955;28;20085;-73
2024/01/28 00:19:47;;;;;;;13.85;9.45;;;;;;;4.04;65.59;100532.88;5091867;28;20028;-73
2024/01/28 00:22:13;;;;;;;6.85;4.78;;;;;;;3.95;66.00;100538.09;5091565;28;20039;-72
2024/01/28 00:24:38;;;;;;;8.20;4.63;;;;;;;4.04;63.74;100541.19;5090625;28;20496;-73
2024/01/28 00:27:04;;;;;;;8.10;5.38;;;;;;;3.86;64.17;100539.66;5091640;28;20454;-73
2024/01/28 00:29:30;;;;;;;9.82;4.55;;;;;;;3.96;63.95;100533.41;5091168;28;20031;-73
2024/01/28 00:31:56;;;;;;;7.68;4.88;;;;;;;4.05;63.14;100538.16;5091614;28;20381;-73
2024/01/28 00:34:21;;;;;;;9.65;5.45;;;;;;;4.17;62.63;100548.22;5090338;28;20035;-73
2024/01/28 00:36:48;;;;;;;9.43;4.25;;;;;;;4.12;63.14;100543.47;5091452;28;20028;-73
2024/01/28 00:39:13;;;;;;;6.05;4.32;;;;;;;4.11;63.12;100554.84;5089977;28;20028;-73
2024/01/28 00:41:39;;;;;;;11.18;4.93;;;;;;;3.98;63.64;100545.88;5090274;28;20030;-73
2024/01/28 00:44:05;;;;;;;13.13;6.38;;;;;;;4.00;63.98;100543.69;5090511;28;20059;-73
2024/01/28 00:46:33;;;;;;;8.55;4.55;;;;;;;4.17;63.51;100546.31;5091611;28;20513;-73
2024/01/28 00:48:59;;;;;;;8.30;4.68;;;;;;;4.20;62.79;100540.22;5090008;28;20480;-73
2024/01/28 00:51:24;;;;;;;8.77;5.00;;;;;;;4.19;63.64;100544.09;5091351;28;20035;-73
2024/01/28 00:53:50;;;;;;;14.13;7.00;;;;;;;3.81;64.78;100546.00;5090723;28;20024;-73
2024/01/28 00:56:17;;;;;;;16.15;6.60;;;;;;;3.75;65.41;100536.84;5106840;28;20107;-73
2024/01/28 00:58:46;;;;;;;15.50;6.30;;;;;;;3.57;66.05;100538.06;5106761;28;20077;-73
2024/01/28 01:01:12;;;;;;;9.73;5.13;;;;;;;3.70;65.75;100538.72;5090377;28;20024;-71
2024/01/28 01:03:38;;;;;;;5.85;4.40;;;;;;;3.37;65.57;100541.41;5091073;28;20024;-72
2024/01/28 01:06:05;;;;;;;6.72;4.45;;;;;;;3.37;65.84;100541.41;5091100;28;20447;-73
2024/01/28 01:08:32;;;;;;;6.68;4.13;;;;;;;3.50;65.75;100535.50;5090956;28;20022;-73
2024/01/28 01:10:58;;;;;;;5.55;4.15;;;;;;;3.23;65.63;100529.94;5091024;28;20046;-72
2024/01/28 01:13:23;;;;;;;6.22;4.22;;;;;;;3.28;66.53;100518.13;5106445;28;20043;-73
2024/01/28 01:15:49;;;;;;;7.18;4.30;;;;;;;3.19;66.49;100521.34;5099883;28;20039;-72
2024/01/28 01:18:15;;;;;;;8.90;5.90;;;;;;;3.12;66.67;100529.00;5089585;28;20032;-73
2024/01/28 01:20:41;;;;;;;8.73;4.40;;;;;;;3.13;67.50;100530.66;5089371;28;20085;-73
2024/01/28 01:23:06;;;;;;;7.15;4.65;;;;;;;3.08;68.29;100530.59;5090771;28;20052;-73
2024/01/28 01:25:32;;;;;;;10.85;4.40;;;;;;;2.93;67.80;100531.25;5089431;28;20024;-72
2024/01/28 01:27:57;;;;;;;9.15;4.32;;;;;;;3.04;68.73;100538.56;5090583;28;20488;-72
2024/01/28 01:30:23;;;;;;;7.15;3.80;;;;;;;3.17;68.35;100526.28;5090726;28;20075;-73
2024/01/28 01:32:49;;;;;;;7.93;4.78;;;;;;;3.23;68.45;100532.72;5089803;28;20031;-73
2024/01/28 01:35:14;;;;;;;12.18;6.20;;;;;;;3.34;68.37;100530.88;5090649;28;20085;-73
2024/01/28 01:37:40;;;;;;;7.50;5.25;;;;;;;3.40;67.80;100529.00;5089083;28;20073;-73
2024/01/28 01:40:07;;;;;;;9.05;5.97;;;;;;;3.53;67.62;100527.75;5090378;28;20024;-73
2024/01/28 01:42:32;;;;;;;11.25;6.28;;;;;;;3.42;67.47;100529.56;5106150;28;20024;-72
2024/01/28 01:44:58;;;;;;;11.45;5.38;;;;;;;3.51;67.31;100531.63;5105849;28;20389;-73
2024/01/28 01:47:27;;;;;;;10.55;6.75;;;;;;;3.62;67.04;100534.47;5105998;28;20028;-73
2024/01/28 01:49:54;;;;;;;12.63;5.63;;;;;;;3.76;67.29;100544.03;5104567;28;20118;-68
2024/01/28 01:52:20;;;;;;;20.35;9.88;;;;;;;3.82;67.09;100547.69;5110375;28;20163;-68
2024/01/28 01:54:47;;;;;;;10.75;7.57;;;;;;;3.87;66.88;100553.25;5126304;27;20482;-69
2024/01/28 01:57:13;;;;;;;10.18;6.53;;;;;;;3.87;66.85;100544.94;5126314;27;20072;-69
2024/01/28 01:59:40;;;;;;;12.32;6.38;;;;;;;3.89;66.67;100548.28;5110304;28;20433;-68
2024/01/28 02:02:07;;;;;;;12.73;6.82;;;;;;;3.97;66.32;100554.44;5110566;28;20138;-68
2024/01/28 02:04:33;;;;;;;14.75;10.60;;;;;;;3.89;66.35;100537.22;5110443;28;20023;-69
2024/01/28 02:06:59;;;;;;;11.00;7.75;;;;;;;3.88;66.09;100551.34;5093432;28;20085;-68
2024/01/28 02:09:25;;;;;;;35.53;12.57;;;;;;;3.80;66.08;100544.31;5105880;28;20424;-69
2024/01/28 02:11:50;;;;;;;20.50;10.00;;;;;;;3.83;65.43;100549.34;5090036;28;20507;-69
2024/01/28 02:14:23;;;;;;;27.23;12.02;;;;;;;3.88;65.83;100551.34;5105526;28;20059;-69
2024/01/28 02:16:48;;;;;;;12.73;5.80;;;;;;;3.83;66.32;100554.03;5089920;28;20103;-68
2024/01/28 02:19:14;;;;;;;6.70;4.65;;;;;;;3.84;66.79;100559.31;5089827;28;20030;-68
2024/01/28 02:21:40;;;;;;;9.13;4.53;;;;;;;3.85;66.28;100557.38;5089071;28;20053;-69
2024/01/28 02:24:06;;;;;;;6.50;4.38;;;;;;;3.75;67.38;100550.66;5105360;28;20040;-68
2024/01/28 02:26:31;;;;;;;8.63;4.55;;;;;;;3.62;68.19;100554.69;5105528;28;20413;-68
2024/01/28 02:28:57;;;;;;;10.93;4.50;;;;;;;3.53;68.59;100555.44;5089731;28;20092;-68
2024/01/28 02:31:22;;;;;;;10.77;4.30;;;;;;;3.46;69.08;100559.22;5105328;28;20034;-68
2024/01/28 02:33:48;;;;;;;5.18;3.40;;;;;;;3.45;69.59;100553.97;5089668;28;20052;-69
2024/01/28 02:36:13;;;;;;;7.72;3.92;;;;;;;3.27;70.82;100546.88;5089900;28;20049;-68
2024/01/28 02:38:39;;;;;;;16.08;4.85;;;;;;;3.11;72.28;100549.44;5105227;28;20504;-69
2024/01/28 02:41:04;;;;;;;8.00;4.50;;;;;;;3.17;72.06;100559.47;5089689;28;20030;-68
2024/01/28 02:43:29;;;;;;;10.18;5.07;;;;;;;3.00;72.99;100556.78;5105545;28;20024;-68
2024/01/28 02:45:55;;;;;;;8.05;5.05;;;;;;;3.04;73.98;100562.63;5089564;28;20031;-68
2024/01/28 02:48:20;;;;;;;13.18;5.35;;;;;;;3.12;73.04;100553.06;5104882;28;20425;-68
2024/01/28 02:50:46;;;;;;;10.32;4.65;;;;;;;3.11;73.53;100560.50;5105137;28;20538;-68
2024/01/28 02:53:11;;;;;;;11.38;5.07;;;;;;;3.02;74.80;100564.84;5089116;28;20492;-69
2024/01/28 02:55:37;;;;;;;7.72;4.80;;;;;;;2.93;75.74;100570.81;5089496;28;20109;-68
2024/01/28 02:58:03;;;;;;;9.40;5.35;;;;;;;2.64;76.88;100570.94;5105294;28;20035;-68
2024/01/28 03:00:29;;;;;;;7.38;4.40;;;;;;;2.43;78.08;100572.59;5088019;28;20067;-68
2024/01/28 03:02:54;;;;;;;12.38;5.80;;;;;;;2.36;78.56;100569.19;5089481;28;20415;-68
2024/01/28 03:05:20;;;;;;;4.78;3.90;;;;;;;2.29;79.29;100582.31;5095900;28;20020;-68
2024/01/28 03:07:46;;;;;;;10.30;4.90;;;;;;;2.28;79.84;100570.44;5093378;28;20103;-68
2024/01/28 03:10:11;;;;;;;7.35;4.55;;;;;;;2.19;79.18;100570.03;5093366;28;20012;-68
2024/01/28 03:12:37;;;;;;;7.40;4.50;;;;;;;2.21;79.43;100584.41;5109031;28;20020;-68
2024/01/28 03:15:03;;;;;;;7.68;4.15;;;;;;;2.24;78.97;100580.31;5093108;28;20040;-68
2024/01/28 03:17:29;;;;;;;7.38;3.65;;;;;;;2.21;78.77;100586.34;5093457;28;20522;-68
2024/01/28 03:19:54;;;;;;;8.82;3.60;;;;;;;2.24;78.85;100591.34;5092979;28;20294;-68
2024/01/28 03:22:20;;;;;;;8.68;3.90;;;;;;;2.26;79.26;100589.19;5111223;28;20031;-68
2024/01/28 03:24:47;;;;;;;6.43;3.45;;;;;;;2.25;79.03;100593.03;5129217;27;20430;-68
2024/01/28 03:27:13;;;;;;;6.68;3.85;;;;;;;2.32;78.36;100596.47;5113474;28;20023;-69
2024/01/28 03:29:38;;;;;;;7.93;4.28;;;;;;;2.33;78.42;100600.06;5113132;28;20039;-68
2024/01/28 03:32:04;;;;;;;7.60;4.35;;;;;;;2.36;78.27;100588.53;5129097;27;20027;-69
2024/01/28 03:34:30;;;;;;;7.47;4.35;;;;;;;2.32;77.95;100596.47;5113223;28;20593;-68
2024/01/28 03:36:55;;;;;;;7.75;4.57;;;;;;;2.35;78.17;100593.19;5107589;28;20380;-68
2024/01/28 03:39:21;;;;;;;5.07;3.63;;;;;;;2.31;77.77;100592.03;5091235;28;20024;-68
2024/01/28 03:41:46;;;;;;;5.13;3.63;;;;;;;2.33;78.30;100595.38;5092669;28;20019;-68
2024/01/28 03:44:15;;;;;;;7.05;3.70;;;;;;;2.27;77.84;100593.59;5091359;28;20063;-69
2024/01/28 03:46:40;;;;;;;8.13;4.65;;;;;;;2.31;77.64;100603.09;5091218;28;20031;-69
2024/01/28 03:49:06;;;;;;;5.18;3.97;;;;;;;2.26;77.68;100602.97;5092588;28;20035;-68
2024/01/28 03:51:31;;;;;;;6.18;3.58;;;;;;;2.24;77.73;100600.50;5091622;28;20495;-68
2024/01/28 03:53:57;;;;;;;5.03;3.67;;;;;;;2.20;77.10;100601.25;5092458;28;20062;-68
2024/01/28 03:56:24;;;;;;;7.95;4.28;;;;;;;2.29;77.45;100608.00;5108110;28;20434;-68
2024/01/28 03:58:49;;;;;;;19.52;9.73;;;;;;;2.20;77.51;100601.25;5092335;28;20131;-68
2024/01/28 04:01:15;;;;;;;14.48;8.20;;;;;;;2.14;77.83;100610.50;5092195;28;20024;-68
2024/01/28 04:03:40;;;;;;;13.48;6.80;;;;;;;1.93;79.00;100604.63;5108358;28;20032;-68
2024/01/28 04:06:06;;;;;;;18.33;6.63;;;;;;;1.93;79.37;100619.28;5090879;28;20392;-68
2024/01/28 04:08:31;;;;;;;7.28;4.35;;;;;;;1.91;79.32;100621.47;5091535;28;20448;-72
2024/01/28 04:10:57;;;;;;;9.93;4.38;;;;;;;1.80;80.37;100622.38;5092168;28;20035;-72
2024/01/28 04:13:22;;;;;;;13.95;5.05;;;;;;;1.71;81.06;100627.44;5107215;28;20093;-72
2024/01/28 04:15:47;;;;;;;9.80;5.95;;;;;;;1.68;81.45;100628.78;5091920;28;20023;-72
2024/01/28 04:18:13;;;;;;;23.17;10.40;;;;;;;1.61;82.01;100628.06;5092043;28;20028;-72
2024/01/28 04:20:38;;;;;;;22.10;12.07;;;;;;;1.61;82.29;100638.28;5091870;28;20428;-73
2024/01/28 04:23:04;;;;;;;20.83;12.57;;;;;;;1.54;82.79;100644.78;5091912;28;20083;-73
2024/01/28 04:25:29;;;;;;;34.75;17.83;;;;;;;1.47;83.52;100648.75;5091104;28;20469;-72
2024/01/28 04:27:55;;;;;;;43.58;22.50;;;;;;;1.44;83.97;100649.25;5090434;28;20031;-72
2024/01/28 04:30:21;;;;;;;38.95;16.20;;;;;;;1.35;83.61;100655.16;5107428;28;20024;-72
2024/01/28 04:32:47;;;;;;;32.75;16.02;;;;;;;1.31;84.04;100667.75;5110842;28;20031;-72
2024/01/28 04:35:13;;;;;;;28.60;14.27;;;;;;;1.32;83.88;100669.44;5112208;28;20024;-73
2024/01/28 04:37:39;;;;;;;26.25;13.40;;;;;;;1.20;84.31;100665.88;5112030;28;20458;-73
2024/01/28 04:40:06;;;;;;;22.55;13.15;;;;;;;1.24;83.85;100678.91;5112027;28;20420;-72
2024/01/28 04:42:32;;;;;;;20.75;10.50;;;;;;;1.29;83.07;100663.56;5112041;28;20110;-73
2024/01/28 04:45:00;;;;;;;17.27;10.90;;;;;;;1.31;83.17;100667.75;5112081;28;20034;-73
2024/01/28 04:47:26;;;;;;;16.77;7.95;;;;;;;1.19;83.35;100665.00;5095829;28;20416;-73
2024/01/28 04:49:51;;;;;;;13.77;8.15;;;;;;;1.25;83.05;100669.56;5090051;28;20028;-72
2024/01/28 04:52:17;;;;;;;11.13;7.22;;;;;;;1.23;82.72;100668.97;5106569;28;20757;-72
2024/01/28 04:54:43;;;;;;;15.50;8.13;;;;;;;1.17;83.18;100661.66;5091339;28;20032;-73
2024/01/28 04:57:09;;;;;;;15.73;7.85;;;;;;;1.25;82.40;100664.06;5091275;28;20032;-72
2024/01/28 04:59:35;;;;;;;18.75;10.27;;;;;;;1.33;81.87;100664.78;5091552;28;20412;-71
2024/01/28 05:02:00;;;;;;;20.35;10.18;;;;;;;1.43;81.36;100680.69;5089952;28;20020;-72
2024/01/28 05:04:26;;;;;;;13.13;8.05;;;;;;;1.33;81.54;100678.56;5090944;28;20038;-72
2024/01/28 05:06:51;;;;;;;19.42;8.68;;;;;;;1.37;81.13;100697.09;5091392;28;20403;-72
2024/01/28 05:09:17;;;;;;;16.75;8.45;;;;;;;1.32;81.47;100698.91;5091247;28;20035;-72
2024/01/28 05:11:44;;;;;;;25.73;9.68;;;;;;;1.26;81.89;100693.28;5091156;28;20064;-73
2024/01/28 05:14:12;;;;;;;11.27;6.38;;;;;;;1.19;82.17;100698.09;5106576;28;20031;-73
2024/01/28 05:16:38;;;;;;;11.20;6.60;;;;;;;1.21;82.42;100704.22;5090699;28;20035;-72
2024/01/28 05:19:06;;;;;;;17.88;8.05;;;;;;;1.12;83.46;100708.44;5090117;28;20485;-71
2024/01/28 05:21:32;;;;;;;11.13;6.40;;;;;;;1.09;83.57;100715.25;5090805;28;20028;-71
2024/01/28 05:23:57;;;;;;;13.13;8.00;;;;;;;0.97;84.21;100708.91;5090732;28;20056;-71
2024/01/28 05:26:23;;;;;;;20.30;10.80;;;;;;;0.94;84.76;100712.16;5089872;28;20098;-71
2024/01/28 05:28:49;;;;;;;21.77;11.88;;;;;;;0.89;84.81;100721.13;5090826;28;20074;-71
2024/01/28 05:31:14;;;;;;;17.67;10.00;;;;;;;0.87;85.05;100725.19;5106229;28;20196;-71
2024/01/28 05:33:41;;;;;;;22.55;11.52;;;;;;;0.88;85.68;100724.97;5089862;28;20056;-71
2024/01/28 05:36:13;;;;;;;26.05;15.77;;;;;;;0.89;85.48;100731.31;5090683;28;20420;-71
2024/01/28 05:38:39;;;;;;;24.70;14.07;;;;;;;0.95;85.30;100731.19;5106267;28;20114;-71
2024/01/28 05:41:08;;;;;;;20.73;11.13;;;;;;;0.98;85.18;100733.47;5091525;28;20114;-71
2024/01/28 05:43:34;;;;;;;17.75;11.07;;;;;;;0.97;85.04;100739.22;5090506;28;20515;-71
2024/01/28 05:46:01;;;;;;;18.90;11.60;;;;;;;1.01;85.59;100745.09;5089111;28;20035;-71
2024/01/28 05:48:26;;;;;;;23.80;14.30;;;;;;;1.00;85.51;100743.41;5103264;28;20507;-71
2024/01/28 05:50:52;;;;;;;13.40;9.98;;;;;;;1.00;85.51;100744.25;5110375;28;20121;-71
2024/01/28 05:53:18;;;;;;;14.93;8.90;;;;;;;1.05;85.19;100743.53;5110667;28;20030;-70
2024/01/28 05:55:43;;;;;;;18.15;9.18;;;;;;;1.05;84.66;100749.03;5110811;28;20051;-72
2024/01/28 05:58:09;;;;;;;20.55;10.02;;;;;;;1.08;84.24;100743.03;5110700;28;20030;-71
2024/01/28 06:00:35;;;;;;;13.93;8.98;;;;;;;1.16;83.24;100752.88;5110556;28;20030;-71
2024/01/28 06:03:00;;;;;;;14.55;8.88;;;;;;;1.22;83.28;100749.16;5109230;28;20029;-69
2024/01/28 06:05:26;;;;;;;12.52;8.27;;;;;;;1.15;83.04;100735.50;5100977;28;20032;-71
2024/01/28 06:07:51;;;;;;;16.50;8.05;;;;;;;1.14;83.41;100750.38;5090103;28;20032;-70
2024/01/28 06:10:17;;;;;;;14.80;7.47;;;;;;;1.15;82.83;100738.25;5098000;28;20094;-70
2024/01/28 06:12:42;;;;;;;18.77;7.82;;;;;;;1.23;82.85;100746.16;5099293;28;20028;-73
2024/01/28 06:15:08;;;;;;;12.70;7.93;;;;;;;1.29;82.56;100744.38;5101040;28;20023;-70
2024/01/28 06:17:37;;;;;;;12.95;8.60;;;;;;;1.33;82.29;100750.25;5090962;28;20427;-69
2024/01/28 06:20:06;;;;;;;11.93;7.20;;;;;;;1.43;81.71;100755.13;5088773;28;20020;-69
2024/01/28 06:22:32;;;;;;;15.88;8.73;;;;;;;1.58;80.78;100754.63;5090525;28;20032;-70
2024/01/28 06:24:58;;;;;;;22.33;10.95;;;;;;;1.63;79.71;100758.34;5089964;28;20028;-71
2024/01/28 06:27:24;;;;;;;12.63;8.45;;;;;;;1.81;79.18;100757.31;5091935;28;20073;-71
2024/01/28 06:29:50;;;;;;;17.40;9.15;;;;;;;1.87;78.85;100743.63;5089389;28;20478;-74
2024/01/28 06:32:15;;;;;;;16.77;10.63;;;;;;;1.91;78.89;100747.56;5105904;28;20598;-73
2024/01/28 06:34:41;;;;;;;17.75;10.43;;;;;;;2.01;78.38;100758.78;5089207;28;20098;-70
2024/01/28 06:37:06;;;;;;;21.20;9.00;;;;;;;2.13;78.46;100749.63;5089840;28;20419;-70
2024/01/28 06:39:32;;;;;;;17.25;9.02;;;;;;;2.22;77.71;100753.66;5108605;28;20503;-73
2024/01/28 06:41:57;;;;;;;15.43;8.77;;;;;;;2.27;77.56;100751.00;5094988;28;20034;-71
2024/01/28 06:44:23;;;;;;;14.13;8.35;;;;;;;2.36;76.96;100757.78;5093976;28;20024;-72
2024/01/28 06:46:48;;;;;;;12.82;9.23;;;;;;;2.35;76.82;100753.38;5092577;28;20057;-71
2024/01/28 06:49:14;;;;;;;13.23;8.45;;;;;;;2.48;76.53;100756.91;5093099;28;20028;-71
2024/01/28 06:51:42;;;;;;;11.77;6.55;;;;;;;2.49;76.88;100756.66;5093559;28;20054;-72
2024/01/28 06:54:10;;;;;;;17.10;8.35;;;;;;;2.58;76.35;100753.47;5093731;28;20512;-72
2024/01/28 06:56:36;;;;;;;14.23;7.13;;;;;;;2.58;76.58;100772.78;5101771;28;20410;-72
2024/01/28 06:59:02;;;;;;;12.15;7.70;;;;;;;2.63;76.03;100759.91;5113832;28;20035;-71
2024/01/28 07:01:27;;;;;;;20.23;11.18;;;;;;;2.68;76.21;100775.75;5114173;28;20019;-71
2024/01/28 07:03:53;;;;;;;26.75;12.77;;;;;;;2.81;75.83;100771.81;5111452;28;20112;-72
2024/01/28 07:06:18;;;;;;;17.92;9.07;;;;;;;2.79;76.16;100780.34;5092707;28;20035;-72
2024/01/28 07:08:44;;;;;;;14.70;8.48;;;;;;;2.81;76.64;100786.47;5093360;28;20031;-72
2024/01/28 07:11:11;;;;;;;12.80;8.88;;;;;;;2.88;77.46;100788.25;5092123;28;20020;-72
2024/01/28 07:13:36;;;;;;;15.70;8.93;;;;;;;2.99;77.12;100784.56;5093185;28;20039;-71
2024/01/28 07:16:03;;;;;;;15.75;7.82;;;;;;;3.11;76.33;100778.91;5097498;28;20023;-71
2024/01/28 07:18:29;;;;;;;20.30;10.43;;;;;;;3.28;75.41;100786.38;5093372;28;20016;-71
2024/01/28 07:20:54;;;;;;;33.10;10.90;;;;;;;3.43;74.92;100786.59;5093323;28;20118;-73
2024/01/28 07:23:20;;;;;;;32.63;10.02;;;;;;;3.51;73.37;100782.53;5102334;28;20036;-73
2024/01/28 07:25:48;;;;;;;27.30;8.73;;;;;;;3.68;73.23;100784.41;5112323;28;20572;-73
2024/01/28 07:28:14;;;;;;;18.08;6.43;;;;;;;3.83;73.29;100786.53;5113550;28;20026;-73
2024/01/28 07:30:39;;;;;;;14.13;6.88;;;;;;;3.91;71.50;100795.22;5112774;28;20076;-73
2024/01/28 07:33:07;;;;;;;17.40;6.82;;;;;;;3.92;71.28;100796.94;5113334;28;20019;-72
2024/01/28 07:35:34;;;;;;;11.60;6.30;;;;;;;3.87;70.39;100791.31;5094495;28;20103;-72
2024/01/28 07:37:59;;;;;;;14.48;6.88;;;;;;;3.95;70.47;100801.09;5093003;28;20028;-72
2024/01/28 07:40:25;;;;;;;17.25;7.70;;;;;;;3.97;69.80;100789.78;5108481;28;20408;-72
2024/01/28 07:42:51;;;;;;;15.35;7.30;;;;;;;4.00;70.43;100792.88;5092943;28;20051;-72
2024/01/28 07:45:16;;;;;;;16.63;8.57;;;;;;;4.10;70.28;100791.28;5092556;28;20131;-72
2024/01/28 07:47:42;;;;;;;19.38;8.88;;;;;;;4.11;70.66;100796.56;5092275;28;20035;-71
2024/01/28 07:50:08;;;;;;;39.85;12.23;;;;;;;4.26;69.70;100793.16;5091056;28;20039;-71
2024/01/28 07:52:34;;;;;;;25.13;8.93;;;;;;;4.40;68.05;100796.31;5108424;28;20026;-72
2024/01/28 07:54:59;;;;;;;15.10;6.88;;;;;;;4.42;67.74;100791.38;5090219;28;20475;-72
2024/01/28 07:57:25;;;;;;;15.60;8.05;;;;;;;4.54;67.19;100801.47;5092418;28;20043;-72
2024/01/28 07:59:50;;;;;;;21.42;7.57;;;;;;;4.64;67.44;100801.56;5092360;28;20052;-72
2024/01/28 08:02:16;;;;;;;27.90;11.77;;;;;;;4.62;66.42;100800.97;5096984;28;20063;-72
2024/01/28 08:04:46;;;;;;;11.85;6.22;;;;;;;4.62;65.37;100807.38;5106578;28;20063;-72
2024/01/28 08:07:12;;;;;;;13.68;7.53;;;;;;;4.76;65.69;100810.53;5110572;28;20062;-72
2024/01/28 08:09:37;;;;;;;10.15;5.72;;;;;;;4.79;63.58;100809.19;5104666;28;20036;-71
2024/01/28 08:12:07;;;;;;;15.23;7.25;;;;;;;4.98;65.80;100806.03;5090905;28;20028;-72
2024/01/28 08:14:32;;;;;;;20.05;8.18;;;;;;;5.03;64.28;100801.38;5108580;28;20390;-70
2024/01/28 08:16:58;;;;;;;19.35;7.60;;;;;;;5.18;65.48;100811.72;5102191;28;20039;-70
2024/01/28 08:19:23;;;;;;;13.00;6.38;;;;;;;5.12;62.34;100804.47;5112336;28;20119;-70
2024/01/28 08:21:49;;;;;;;14.15;8.60;;;;;;;5.20;62.83;100809.53;5098812;28;20485;-69
2024/01/28 08:24:14;;;;;;;16.92;7.47;;;;;;;5.40;63.47;100813.53;5110320;28;20462;-69
2024/01/28 08:26:40;;;;;;;14.93;7.45;;;;;;;5.42;63.03;100811.31;5126552;27;20636;-70
2024/01/28 08:29:06;;;;;;;4.80;3.92;;;;;;;5.51;60.57;100814.47;5123087;27;20032;-70
2024/01/28 08:31:31;;;;;;;10.23;4.88;;;;;;;5.64;60.99;100821.47;5097745;28;20040;-70
2024/01/28 08:33:57;;;;;;;5.60;3.00;;;;;;;5.49;57.75;100822.22;5090303;28;20023;-70
2024/01/28 08:36:22;;;;;;;6.43;3.25;;;;;;;5.48;57.38;100818.59;5100883;28;20043;-69
2024/01/28 08:38:48;;;;;;;9.88;4.07;;;;;;;5.39;57.09;100820.19;5090112;28;20480;-70
2024/01/28 08:41:13;;;;;;;9.25;4.15;;;;;;;5.54;58.25;100826.94;5094999;28;20124;-70
2024/01/28 08:43:39;;;;;;;6.18;3.40;;;;;;;5.67;56.94;100828.41;5109044;28;20031;-71
2024/01/28 08:46:04;;;;;;;8.38;4.00;;;;;;;5.61;57.26;100835.88;5108875;28;20487;-70
2024/01/28 08:48:31;;;;;;;6.20;4.70;;;;;;;5.52;57.16;100835.56;5109097;28;20475;-69
2024/01/28 08:50:56;;;;;;;11.18;6.03;;;;;;;5.59;57.01;100849.19;5107432;28;20645;-71
2024/01/28 08:53:22;;;;;;;11.85;7.18;;;;;;;5.56;56.79;100844.19;5095499;28;20024;-73
2024/01/28 08:55:47;;;;;;;9.90;4.90;;;;;;;5.41;58.37;100853.25;5104052;28;20553;-73
2024/01/28 08:58:13;;;;;;;4.28;3.55;;;;;;;5.25;58.17;100852.28;5109295;28;20102;-71
2024/01/28 09:00:39;;;;;;;9.82;5.63;;;;;;;5.17;58.96;100856.38;5103105;28;20031;-69
2024/01/28 09:03:05;;;;;;;13.65;6.18;;;;;;;5.13;58.66;100855.22;5088817;28;20028;-70
2024/01/28 09:05:30;;;;;;;8.60;4.13;;;;;;;5.23;58.83;100857.25;5100381;28;20106;-72
2024/01/28 09:07:56;;;;;;;5.72;3.70;;;;;;;5.46;58.71;100851.34;5095732;28;20050;-71
2024/01/28 09:10:23;;;;;;;14.95;5.72;;;;;;;5.34;56.97;100857.06;5108565;28;20030;-74
2024/01/28 09:12:48;;;;;;;12.35;7.30;;;;;;;5.62;56.44;100857.84;5106496;28;20039;-73
2024/01/28 09:15:14;;;;;;;7.68;5.00;;;;;;;5.72;54.38;100856.19;5124766;27;20519;-72
2024/01/28 09:17:41;;;;;;;7.32;3.88;;;;;;;6.02;55.14;100858.34;5107465;28;20084;-72
2024/01/28 09:20:07;;;;;;;14.32;5.57;;;;;;;6.01;53.45;100856.66;5099758;28;20135;-71
2024/01/28 09:22:36;;;;;;;14.57;4.13;;;;;;;6.17;52.41;100859.53;5106205;28;22070;-72
2024/01/28 09:25:04;;;;;;;10.30;4.90;;;;;;;6.18;51.56;100852.88;5091546;28;20115;-70
2024/01/28 09:27:31;;;;;;;6.25;3.20;;;;;;;6.13;52.34;100847.28;5087184;28;20594;-73
2024/01/28 09:29:56;;;;;;;9.32;4.57;;;;;;;6.46;53.48;100854.38;5101864;28;20063;-71
2024/01/28 09:32:24;;;;;;;10.77;4.18;;;;;;;6.40;52.51;100849.06;5106995;28;20055;-71
2024/01/28 09:34:51;;;;;;;8.57;4.40;;;;;;;6.32;53.54;100851.25;5106795;28;20034;-72
2024/01/28 09:37:17;;;;;;;8.73;4.38;;;;;;;6.15;52.47;100853.38;5107323;28;20041;-73
2024/01/28 09:39:43;;;;;;;5.88;3.70;;;;;;;5.79;52.26;100850.41;5108396;28;20054;-73
2024/01/28 09:42:09;;;;;;;6.15;3.08;;;;;;;5.78;52.78;100845.97;5124264;27;20035;-75
2024/01/28 09:44:34;;;;;;;5.47;3.15;;;;;;;5.65;52.82;100855.63;5108337;28;20476;-73
2024/01/28 09:47:00;;;;;;;10.35;4.47;;;;;;;5.67;52.37;100847.84;5108354;28;20027;-72
2024/01/28 09:49:27;;;;;;;7.53;4.57;;;;;;;5.77;53.31;100845.16;5109357;28;20443;-72
2024/01/28 09:51:53;;;;;;;8.15;4.35;;;;;;;5.79;53.63;100837.38;5110987;27;20040;-72
2024/01/28 09:54:19;;;;;;;8.77;3.88;;;;;;;5.66;51.71;100838.69;5089287;28;20724;-74
2024/01/28 09:56:46;;;;;;;7.20;3.67;;;;;;;5.80;51.84;100843.78;5104325;28;20032;-79
2024/01/28 09:59:14;;;;;;;4.00;3.13;;;;;;;5.87;51.35;100844.34;5087569;28;20036;-75
2024/01/28 10:01:42;;;;;;;9.65;4.30;;;;;;;6.02;51.46;100844.44;5088720;28;20042;-74
2024/01/28 10:04:10;;;;;;;5.05;3.38;;;;;;;5.94;52.01;100844.97;5087070;28;20028;-75
2024/01/28 10:06:36;;;;;;;8.18;4.13;;;;;;;5.94;50.97;100844.97;5085899;28;20100;-75
2024/01/28 10:09:02;;;;;;;10.30;5.30;;;;;;;5.95;50.07;100841.06;5094254;28;20092;-79
2024/01/28 10:11:28;;;;;;;6.68;4.22;;;;;;;5.92;51.21;100843.53;5105761;28;20023;-76
2024/01/28 10:13:54;;;;;;;4.60;3.22;;;;;;;6.11;51.21;100839.22;5122371;27;20456;-79
2024/01/28 10:16:30;;;;;;;10.32;4.90;;;;;;;6.35;50.38;100849.03;5108112;28;20098;-74
2024/01/28 10:18:55;;;;;;;6.13;4.10;;;;;;;6.38;50.20;100842.91;5108197;28;20031;-75
2024/01/28 10:21:21;;;;;;;7.45;4.00;;;;;;;6.53;51.56;100839.34;5123756;27;20499;-72
2024/01/28 10:23:46;;;;;;;6.38;4.38;;;;;;;6.73;50.82;100844.97;5108261;28;20451;-71
2024/01/28 10:26:12;;;;;;;13.10;3.72;;;;;;;6.85;50.88;100849.44;5096256;28;20032;-71
2024/01/28 10:28:38;;;;;;;3.97;3.15;;;;;;;6.62;49.98;100839.66;5100402;28;20035;-72
2024/01/28 10:31:04;;;;;;;4.30;2.92;;;;;;;6.16;50.91;100842.03;5107700;28;20487;-71
2024/01/28 10:33:29;;;;;;;3.90;2.92;;;;;;;5.94;49.99;100833.00;5094691;28;20056;-73
2024/01/28 10:35:59;;;;;;;8.52;4.10;;;;;;;5.88;51.90;100819.09;5100426;28;20043;-74
2024/01/28 10:38:27;;;;;;;7.00;5.22;;;;;;;6.13;51.75;100836.16;5107985;28;20031;-69
2024/01/28 10:40:53;;;;;;;4.07;3.42;;;;;;;6.00;51.01;100832.75;5104068;28;20036;-72
2024/01/28 10:43:26;;;;;;;7.03;4.75;;;;;;;6.08;51.31;100836.16;5089162;28;20024;-72
2024/01/28 10:45:55;;;;;;;4.47;3.38;;;;;;;5.94;51.11;100828.28;5088793;28;20488;-73
2024/01/28 10:48:22;;;;;;;6.53;3.05;;;;;;;5.83;50.37;100821.84;5090233;28;20039;-82
2024/01/28 10:50:51;;;;;;;4.85;3.25;;;;;;;5.87;50.55;100838.78;5109359;28;20030;-79
2024/01/28 10:53:18;;;;;;;8.93;4.38;;;;;;;5.89;51.66;100828.25;5107694;28;20108;-74
2024/01/28 10:55:44;;;;;;;5.75;3.40;;;;;;;5.82;50.62;100824.91;5107901;28;20038;-73
2024/01/28 10:58:16;;;;;;;12.02;3.15;;;;;;;5.76;49.77;100824.03;5123258;28;20032;-69
2024/01/28 11:00:42;;;;;;;6.65;3.35;;;;;;;5.82;49.21;100827.69;5109093;28;20525;-69
2024/01/28 11:03:09;;;;;;;2.83;2.42;;;;;;;5.88;50.36;100834.91;5108811;28;20027;-68
2024/01/28 11:05:36;;;;;;;2.88;2.67;;;;;;;5.93;49.87;100818.28;5117647;28;20035;-70
2024/01/28 11:08:02;;;;;;;5.80;4.22;;;;;;;5.90;50.93;100822.44;5100714;28;20495;-71
2024/01/28 11:10:29;;;;;;;8.10;5.22;;;;;;;6.00;51.44;100826.38;5108003;28;20106;-69
2024/01/28 11:13:00;;;;;;;11.55;6.22;;;;;;;5.93;50.63;100821.06;5103956;28;20422;-70
2024/01/28 11:15:28;;;;;;;;;;;;;;;5.93;50.42;100823.84;5088646;28;20035;-71
2024/01/28 11:17:54;;;;;;;12.90;6.55;;;;;;;5.82;50.68;100836.00;5087880;28;20376;-71
2024/01/28 11:20:27;;;;;;;17.20;5.80;;;;;;;5.70;51.73;100828.72;5120851;28;20036;-72